Vue régionale

METAR et TAF

Mercredi 11 décembre 2019 à 21h45

Visibilités horizontales observées à différents aéroports. Les observations (METAR) et prévisions aéronautiques (TAF) complètes sont disponibles en cliquant sur l’icône correspondante.

  • Luxemburg (ELLX)

    Taf: TAF ELLX 111700Z 1118/1224 23010KT 8000 SCT003 BKN005 TEMPO 1118/1207 3000 BR BKN003 PROB30 TEMPO 1121/1206 1500 -RASN BECMG 1206/1209 BKN010 PROB40 TEMPO 1210/1220 BKN015 TEMPO 1221/1224 1200 SNRA BKN003=

    Metar: METAR ELLX 112020Z 22007KT 9999 SCT008 BKN010 04/03 Q1006 NOSIG=

  • Spangdahlem (ETAD)

    Taf: TAF AMD ETAD 111955Z 1119/1219 23008KT 8000 BR BKN010 OVC020 620159 QNH2968INS TEMPO 1120/1201 1200 BR BKN005 BECMG 1200/1201 21006KT 8000 -RASN BKN005 OVC008 620207 QNH2966INS BECMG 1209/1210 23010G15KT 8000 BR FEW004 BKN007 620152 QNH2964INS TX03/1120Z TN01/1121Z=

    Metar: nil

  • Metz/Nancy (LFJL)

    Taf: TAF AMD LFJL 112027Z 1120/1218 22010KT 9999 BKN013 OVC025 TEMPO 1120/1123 SCT013 BKN040 TEMPO 1123/1209 4000 SHRA BKN005 PROB30 TEMPO 1203/1207 BKN013TCU BECMG 1212/1214 BKN020=

    Metar: nil

  • Saarbrücken/Intl (EDDR)

    Taf: TAF EDDR 111700Z 1118/1218 22010KT 9999 SCT005 OVC012 TEMPO 1118/1205 1500 -DZ BKN003 PROB30 TEMPO 1205/1212 2500 SHRASN BKN008 BKN013TCU BECMG 1212/1214 SCT025=

    Metar: nil

  • Hahn (EDFH)

    Taf: TAF EDFH 111700Z 1118/1218 24007KT 9999 SCT005 BKN012 TEMPO 1118/1203 1200 -DZ BR BKN002 PROB40 TEMPO 1202/1211 0400 -SHSN BKN002 BKN008TCU BECMG 1209/1213 19012KT SCT015=

    Metar: nil

  • Ramstein (ETAR)

    Taf: TAF ETAR 111800Z 1118/1224 23009KT 8000 -SHRA BKN009 OVC015 610302 QNH2974INS TEMPO 1118/1121 BKN010 BECMG 1120/1121 23009KT 9999 NSW OVC010 QNH2969INS BECMG 1202/1203 22009KT 9000 -SHRA BKN009 OVC015 610303 QNH2967INS BECMG 1206/1207 22009KT 9999 NSW BKN010 OVC015 620302 QNH2956INS BECMG 1214/1215 21009KT 9999 BKN025 QNH2943INS BECMG 1217/1218 16009KT 9999 FEW090 QNH2922INS TX04/1120Z TN02/1118Z=

    Metar: nil

  • Nancy/Ochey (LFSO)

    Taf: TAF LFSO 112000Z NIL=

    Metar: nil

  • Liège Bierset (EBLG)

    Taf: TAF COR EBLG 111727Z 1118/1224 20007KT 9999 FEW025 TEMPO 1200/1204 22015G25KT 4000 SHRA BKN008 SCT015CB PROB30 TEMPO 1204/1211 4500 -DZRA SCT005 BKN008 PROB30 TEMPO 1216/1218 17015G25KT 3500 RADZ BKN005=

    Metar: nil

  • Saint-Dizier (LFSI)

    Taf: TAF LFSI 112000Z 1121/1221 20008KT 9999 BKN010 TEMPO 1121/1202 3000 SHRA SCT020TCU BECMG 1208/1210 NSW BKN020=

    Metar: nil

  • Maastricht/Zuid Limburg (EHBK)

    Taf: TAF EHBK 111721Z 1118/1224 20008KT 9999 SCT035 BECMG 1200/1203 23010KT 7000 -RADZ BKN012 PROB40 TEMPO 1201/1208 4000 RADZ BKN006 BECMG 1207/1210 9999 NSW SCT035 BECMG 1212/1215 18012KT BECMG 1219/1222 18016G26KT 7000 RA BKN020=

    Metar: nil

  • Köln/Köln-Bonn (EDDK)

    Taf: TAF EDDK 111700Z 1118/1224 14005KT 9999 BKN025 BECMG 1205/1208 21008KT BECMG 1216/1218 14012KT TEMPO 1222/1224 14015G25KT=

    Metar: METAR EDDK 112020Z 14006KT 9999 SCT042 03/03 Q1005 NOSIG=

  • Charleroi (EBCI)

    Taf: TAF COR EBCI 111727Z 1118/1224 20008KT 9999 SCT010 PROB30 TEMPO 1118/1122 BKN008 TEMPO 1122/1203 22015G25KT 4000 SHRA BKN008 SCT015CB PROB30 TEMPO 1203/1211 4500 -DZRA SCT005 BKN008 PROB30 TEMPO 1216/1224 17015G25KT 3500 RADZ BKN005=

    Metar: nil

  • Wiesbaden (ETOU)

    Taf: TAF ETOU 112002Z 1120/1302 21009KT 5000 BR -DZ OVC005 620406 QNH2969INS BECMG 1122/1123 21009KT 9999 NSW OVC015 620208 QNH2967INS TEMPO 1204/1207 8000 -RA BECMG 1211/1212 21009KT 9999 BKN030 QNH2961INS TX05/1213Z TNM01/1200Z=

    Metar: nil

  • Karlsruhe/Baden-Baden (EDSB)

    Taf: TAF AMD EDSB 111943Z 1119/1218 19005KT 9000 SCT015 BKN025 TEMPO 1119/1202 21011KT 4500 RADZ BKN009 OVC012 PROB30 TEMPO 1202/1208 3000 DZRA BKN010 BECMG 1205/1208 21010KT PROB30 TEMPO 1208/1212 4000 SHRA BKN012TCU=

    Metar: nil

  • Chalons/Vatry (LFOK)

    Taf: TAF LFOK 111700Z 1118/1218 23012KT 9999 BKN012 BECMG 1118/1120 BKN016 TEMPO 1121/1202 3000 SHRA BKN010 BKN020CB BECMG 1202/1204 OVC009 BECMG 1210/1212 BKN013 BECMG 1212/1214 23015G25KT BKN025=

    Metar: nil

  • Frankfurt/Main (EDDF)

    Taf: TAF AMD EDDF 111901Z 1119/1224 20004KT 9999 SCT013 BKN025 TEMPO 1119/1121 4500 -SNRA BKN004 OVC012 BECMG 1121/1123 SCT008 BKN011 TEMPO 1123/1207 3000 -DZ BR BKN005 OVC008 PROB30 TEMPO 1207/1212 SHRA BKN014 BKN020TCU BECMG 1208/1210 21012KT BKN020 BECMG 1214/1217 16007KT SCT020=

    Metar: METAR EDDF 112020Z 19008KT 8000 -SN BKN004 OVC012 01/00 Q1007 BECMG SCT004 OVC012=

  • Brüssel (EBBR)

    Taf: TAF COR EBBR 111727Z 1118/1224 21008KT 9999 FEW035 TEMPO 1122/1203 22015G25KT 4000 SHRA BKN008 SCT015CB PROB30 TEMPO 1203/1212 4500 -DZRA SCT008 BKN012 PROB30 TEMPO 1216/1224 17015G25KT 3500 RADZ BKN008=

    Metar: METAR EBBR 112020Z 20008KT CAVOK 05/03 Q1004 NOSIG=

  • Düsseldorf (EDDL)

    Taf: TAF EDDL 111700Z 1118/1224 19009KT 9999 BKN013 BECMG 1118/1121 BKN040 PROB40 TEMPO 1203/1212 BKN011 BECMG 1215/1217 15014KT TEMPO 1217/1224 17015G25KT=

    Metar: nil

  • Luxeuil (LFSX)

    Taf: TAF LFSX 112000Z NIL=

    Metar: nil

  • Eindhoven (EHEH)

    Taf: TAF EHEH 111727Z 1118/1224 18006KT 9999 CAVOK PROB40 1113/1124 FEW020 SCT070 BECMG 1200/1203 24011KT BKN018 OVC025 PROB40 TEMPO 1200/1206 4000 -RA SHRA SCT008 BKN012 SCT025CB BECMG 1210/1213 17012KT TEMPO 1220/1224 4000 -RA BKN018 OVC035 PROB30 TEMPO 1222/1224 2500 RA BKN012 OVC020=

    Metar: nil

  • Niederrhein (EDLV)

    Taf: TAF EDLV 111700Z 1118/1218 18005KT 9999 BKN009 BECMG 1118/1121 SCT030 BKN045 BECMG 1202/1204 21010KT PROB30 TEMPO 1202/1206 SCT006 BKN009 BECMG 1214/1216 15010KT=

    Metar: nil

  • Dortmund/Wickede (EDLW)

    Taf: TAF AMD EDLW 111924Z 1119/1218 20009KT 9999 BKN009 BECMG 1119/1122 BKN020 PROB30 TEMPO 1204/1211 BKN012=

    Metar: nil

  • Stuttgart/Echterdingen (EDDS)

    Taf: TAF EDDS 111700Z 1118/1218 20002KT 9000 SCT015 BKN025 PROB40 TEMPO 1118/1203 4500 RADZ BKN014 PROB30 TEMPO 1203/1210 3000 DZRA BKN010 BECMG 1205/1208 21008KT PROB30 TEMPO 1210/1214 3000 SHRASN BKN012TCU=

    Metar: METAR EDDS 112020Z 21005KT 170V240 9999 -SNRA FEW009 SCT013 BKN030 02/01 Q1008 NOSIG=

  • Basel-Mühlhausen (LFSB)

    Taf: TAF LFSB 111700Z 1118/1218 26005KT 9999 BKN030 TEMPO 1118/1121 4000 RA PROB30 TEMPO 1202/1208 -SHRA PROB40 TEMPO 1208/1213 26015G25KT=

    Metar: METAR LFSB 112030Z VRB03KT 9999 FEW028 SCT043 OVC120 04/02 Q1010 NOSIG=

  • Lille (LFQQ)

    Taf: TAF LFQQ 111700Z 1118/1224 21010KT 9999 BKN020 TEMPO 1119/1124 4000 SHRA BKN025CB TEMPO 1209/1215 BKN009 BECMG 1212/1214 17015G25KT TEMPO 1218/1224 17025G35KT RA BKN012=

    Metar: nil

  • Paris/Charles de Gaulle (LFPG)

    Taf: TAF AMD LFPG 111807Z 1118/1224 20010KT 9999 BKN018 TX07/1224Z TN01/1206Z TEMPO 1119/1121 3000 SHRA BKN008 BKN012 SCT014TCU TEMPO 1206/1211 BKN006 PROB40 TEMPO 1206/1210 BKN003 BECMG 1211/1213 17015G25KT BECMG 1213/1215 BKN012 TEMPO 1218/1219 4000 RA=

    Metar: nil

  • Paderborn/Lippstadt (EDLP)

    Taf: TAF AMD EDLP 111927Z 1119/1218 21007KT 9999 BKN020 TEMPO 1119/1122 3500 -DZRA BKN008 PROB30 TEMPO 1206/1212 BKN012=

    Metar: nil

  • Paris/Le Bourget (LFPB)

    Taf: TAF LFPB 111700Z 1118/1218 20010KT 9999 BKN018 TEMPO 1119/1121 3000 SHRA BKN008 SCT014TCU TEMPO 1206/1211 BKN006 PROB40 TEMPO 1206/1210 BKN003 BECMG 1211/1213 17015G25KT BECMG 1213/1215 BKN012=

    Metar: METAR LFPB 112030Z AUTO 22009KT 9999 FEW018/// OVC049/// ///TCU 07/04 Q1006 BECMG BKN018=

  • Rotterdam (EHRD)

    Taf: TAF COR EHRD 111901Z 1118/1224 18010KT 9999 SCT025 PROB30 TEMPO 1118/1121 6000 BKN012 TEMPO 1123/1204 6000 RA SHRA SCT008 BKN012 FEW018CB BECMG 1201/1204 26010KT BECMG 1206/1209 20008KT BECMG 1215/1218 17016KT BECMG 1219/1222 16018G28KT 6000 RA SCT007 BKN012 TEMPO 1221/1224 4000 RADZ BKN007=

    Metar: nil

  • Zürich/Kloten (LSZH)

    Taf: TAF LSZH 112025Z 1121/1303 21006KT 9000 -DZRASN SCT012 BKN018 TX03/1214Z TNM01/1221Z BECMG 1121/1124 NSW TEMPO 1204/1208 4000 SHRASN BKN008 PROB30 TEMPO 1204/1208 2000 SHSN BECMG 1207/1210 FEW015 SCT030 TEMPO 1210/1214 24010KT TEMPO 1214/1219 CAVOK TEMPO 1300/1303 4000 SNRA BKN014=

    Metar: METAR LSZH 112020Z 21008KT 9999 FEW011 SCT024 BKN037 03/01 Q1011 NOSIG=

  • Oostende/Intl (EBOS)

    Taf: TAF COR EBOS 111727Z 1118/1224 19011KT 9999 SCT025 PROB40 TEMPO 1118/1121 23015G25KT 3500 RA SHRA BKN010 SCT015CB PROB40 TEMPO 1202/1212 BKN008 TEMPO 1212/1224 16018G28KT 3500 RADZ BKN008=

    Metar: nil

  • Paris/Orly (LFPO)

    Taf: TAF LFPO 111700Z 1118/1224 20010KT 9999 SCT020 TEMPO 1118/1123 24015G25KT -SHRA BKN014TCU PROB30 TEMPO 1118/1121 4000 SHRA BKN008 BKN014CB TEMPO 1206/1211 BKN006 PROB40 TEMPO 1206/1210 BKN004 BECMG 1211/1213 18012G25KT BKN014 TEMPO 1215/1224 -RA PROB40 TEMPO 1217/1221 18015G30KT 4000 RA BKN012TCU=

    Metar: nil

  • Beauvais (LFOB)

    Taf: TAF AMD LFOB 111818Z 1118/1218 21010KT 9999 BKN035 TEMPO 1118/1124 3000 SHRA BKN012 BKN025CB TEMPO 1208/1211 BKN008 BECMG 1214/1216 17015G25KT OVC013 TEMPO 1217/1218 4000 RA OVC008=

    Metar: nil

  • Münster/Intl (EDDG)

    Taf: TAF AMD EDDG 112022Z 1120/1218 17004KT 6000 BKN015 PROB30 TEMPO 1121/1208 BKN005 BECMG 1206/1208 21009KT BECMG 1214/1217 15006KT=

    Metar: METAR EDDG 112020Z 18005KT 150V210 6000 SCT004 BKN017 04/04 Q1004 TEMPO BKN004=

  • Illesheim (ETIK)

    Taf: TAF ETIK 111512Z 1115/1221 20009KT 8000 -SHRA SCT010 BKN015 610208 510109 QNH2973INS BECMG 1118/1119 22010G15KT 8000 -SHRA OVC010 620109 QNH2968INS BECMG 1201/1202 25009KT 9999 NSW OVC006 620109 QNH2964INS BECMG 1206/1207 20009KT 9999 BKN015 620202 QNH2960INS TEMPO 1210/1213 8000 -SHRA TX04/1213Z TNM02/1207Z=

    Metar: nil

  • Duebendorf (LSMD)

    Taf: TAF LSMD 111625Z 1117/1223 VRB03KT 9999 BKN040 TEMPO 1117/1123 4000=

    Metar: nil

  • Villacoublay (LFPV)

    Taf: TAF LFPV 112000Z 1121/1221 23007KT 9999 BKN012 BKN045TCU PROB40 TEMPO 1121/1123 -SHRA BKN020CB TEMPO 1205/1208 BKN006 PROB40 TEMPO 1207/1210 OVC003 BECMG 1215/1217 17015G25KT 4000 RA OVC007=

    Metar: nil

  • Payerne (LSMP)

    Taf: TAF LSMP 111625Z 1117/1223 24010KT 9999 -SHRA FEW015 BKN030 PROB30 TEMPO 1202/1206 4000 SHRASN BKN014=

    Metar: nil

  • Amsterdam/Schipol (EHAM)

    Taf: TAF COR EHAM 111900Z 1118/1224 18010KT 9999 SCT025 TEMPO 1200/1205 6000 RA SHRA SCT008 BKN012 FEW018CB BECMG 1202/1205 26010KT BECMG 1207/1210 20008KT BECMG 1215/1218 17016KT BECMG 1220/1223 16018G28KT 6000 RA SCT007 BKN012 TEMPO 1222/1224 4000 RADZ BKN007=

    Metar: METAR EHAM 112025Z 18010KT 8000 FEW005 05/04 Q1002 NOSIG=

  • Emmen (LSME)

    Taf: TAF LSME 111625Z 1117/1223 VRB03KT 9999 BKN060 TEMPO 1118/1123 4000 RASN PROB30 TEMPO 1118/1123 3000 SN BECMG 1118/1121 SCT010 BKN014 TEMPO 1200/1204 BKN018 TEMPO 1204/1209 4000 SHRASN BKN008 PROB40 TEMPO 1204/1209 2000 SHSN BECMG 1209/1212 FEW015 SCT030 TEMPO 1210/1215 24008KT TEMPO 1214/1219 CAVOK=

    Metar: nil

  • Friedrichshafen (EDNY)

    Taf: TAF EDNY 111700Z 1118/1218 VRB03KT 9999 BKN035 TEMPO 1118/1204 4000 -RASN BKN008 PROB30 TEMPO 1120/1124 2000 SN BKN004 BECMG 1205/1208 23008KT TEMPO 1207/1214 4000 SHRASN BKN009TCU BECMG 1216/1218 05003KT=

    Metar: nil

  • Alpnach (LSMA)

    Taf: TAF LSMA 111625Z 1117/1223 VRB03KT 9999 BKN070 TEMPO 1118/1123 4000=

    Metar: nil

  • Meiringen (LSMM)

    Taf: TAF LSMM 111625Z 1117/1223 VRB03KT 9999 BKN050 BECMG 1117/1120 3000 -SN SCT010 BKN014 PROB40 TEMPO 1118/1123 1500 SN VV006 BECMG 1123/1202 NSW BKN018 TEMPO 1204/1209 4000 SHSNRA BKN008 PROB40 TEMPO 1204/1209 2000 SHSN BECMG 1209/1212 FEW015 SCT030 TEMPO 1210/1215 24008KT TEMPO 1214/1219 CAVOK=

    Metar: nil

  • Nürnberg (EDDN)

    Taf: TAF EDDN 111700Z 1118/1218 17005KT 9999 FEW008 BKN030 TEMPO 1118/1205 4000 -RASN BKN009 PROB30 TEMPO 1121/1203 2000 SN BKN004 TEMPO 1205/1208 BKN006 TEMPO 1210/1216 4000 SHRASN BKN009TCU TEMPO 1211/1215 23005KT=

    Metar: METAR EDDN 112020Z 14006KT 4300 -SN BR BKN007 BKN012 00/M00 Q1008 R28/69//93 NOSIG=

  • Rouen (LFOP)

    Taf: TAF AMD LFOP 111815Z 1118/1218 25008KT 9999 BKN030 TEMPO 1118/1201 4000 SHRA BKN012 BKN025CB PROB40 TEMPO 1118/1122 2000 TSRA SCT013 BKN020CB BECMG 1210/1212 17010KT OVC013 TEMPO 1216/1218 4000 RA OVC006=

    Metar: nil

  • Evreux (LFOE)

    Taf: TAF LFOE 111741Z 1117/1215 CNL=

    Metar: nil

  • Erfurt/Bindersleben (EDDE)

    Taf: TAF AMD EDDE 111856Z 1118/1218 21008KT 9999 BKN045 TEMPO 1118/1123 4000 -SN BKN008 PROB30 TEMPO 1118/1123 1200 -SN BKN003=

    Metar: nil